sensor_id;sensor_type;location;lat;lon;timestamp;pressure;altitude;pressure_sealevel;temperature
67599;BMP280;62026;39.230;9.122;2022-09-09T00:01:15;100949.84;;;28.91
67599;BMP280;62026;39.230;9.122;2022-09-09T00:06:21;100928.81;;;28.80
67599;BMP280;62026;39.230;9.122;2022-09-09T00:09:15;100942.09;;;28.81
67599;BMP280;62026;39.230;9.122;2022-09-09T00:11:51;100939.06;;;28.83
67599;BMP280;62026;39.230;9.122;2022-09-09T00:20:00;100917.41;;;28.66
67599;BMP280;62026;39.230;9.122;2022-09-09T00:22:29;100935.72;;;28.77
67599;BMP280;62026;39.230;9.122;2022-09-09T00:25:12;100937.97;;;28.75
67599;BMP280;62026;39.230;9.122;2022-09-09T00:27:47;100933.44;;;28.67
67599;BMP280;62026;39.230;9.122;2022-09-09T00:30:24;100944.59;;;28.66
67599;BMP280;62026;39.230;9.122;2022-09-09T00:33:15;100932.75;;;28.70
67599;BMP280;62026;39.230;9.122;2022-09-09T00:35:49;100930.72;;;28.67
67599;BMP280;62026;39.230;9.122;2022-09-09T00:38:20;100907.97;;;28.51
67599;BMP280;62026;39.230;9.122;2022-09-09T00:41:11;100919.56;;;28.60
67599;BMP280;62026;39.230;9.122;2022-09-09T00:43:40;100920.72;;;28.59
67599;BMP280;62026;39.230;9.122;2022-09-09T00:46:29;100916.63;;;28.53
67599;BMP280;62026;39.230;9.122;2022-09-09T00:52:57;100926.44;;;28.58
67599;BMP280;62026;39.230;9.122;2022-09-09T00:57:34;100924.56;;;28.58
67599;BMP280;62026;39.230;9.122;2022-09-09T01:00:20;100926.00;;;28.56
67599;BMP280;62026;39.230;9.122;2022-09-09T01:03:19;100917.47;;;28.45
67599;BMP280;62026;39.230;9.122;2022-09-09T01:06:01;100933.56;;;28.50
67599;BMP280;62026;39.230;9.122;2022-09-09T01:11:03;100929.25;;;28.49
67599;BMP280;62026;39.230;9.122;2022-09-09T01:13:32;100936.94;;;28.47
67599;BMP280;62026;39.230;9.122;2022-09-09T01:16:06;100927.66;;;28.48
67599;BMP280;62026;39.230;9.122;2022-09-09T01:18:39;100929.47;;;28.44
67599;BMP280;62026;39.230;9.122;2022-09-09T01:24:26;100926.75;;;28.44
67599;BMP280;62026;39.230;9.122;2022-09-09T01:27:14;100923.53;;;28.42
67599;BMP280;62026;39.230;9.122;2022-09-09T01:29:40;100921.03;;;28.37
67599;BMP280;62026;39.230;9.122;2022-09-09T01:32:46;100918.78;;;28.39
67599;BMP280;62026;39.230;9.122;2022-09-09T01:35:41;100923.28;;;28.35
67599;BMP280;62026;39.230;9.122;2022-09-09T01:38:04;100898.78;;;28.23
67599;BMP280;62026;39.230;9.122;2022-09-09T01:40:31;100920.09;;;28.33
67599;BMP280;62026;39.230;9.122;2022-09-09T01:42:57;100912.00;;;28.24
67599;BMP280;62026;39.230;9.122;2022-09-09T01:45:24;100912.97;;;28.28
67599;BMP280;62026;39.230;9.122;2022-09-09T01:47:52;100923.03;;;28.28
67599;BMP280;62026;39.230;9.122;2022-09-09T01:50:40;100914.28;;;28.22
67599;BMP280;62026;39.230;9.122;2022-09-09T01:53:07;100918.44;;;28.20
67599;BMP280;62026;39.230;9.122;2022-09-09T01:55:40;100909.22;;;28.12
67599;BMP280;62026;39.230;9.122;2022-09-09T02:00:56;100914.81;;;28.16
67599;BMP280;62026;39.230;9.122;2022-09-09T02:03:32;100904.81;;;28.07
67599;BMP280;62026;39.230;9.122;2022-09-09T02:06:25;100903.66;;;28.08
67599;BMP280;62026;39.230;9.122;2022-09-09T02:08:59;100882.97;;;27.95
67599;BMP280;62026;39.230;9.122;2022-09-09T02:11:28;100884.56;;;27.96
67599;BMP280;62026;39.230;9.122;2022-09-09T02:14:22;100885.50;;;28.00
67599;BMP280;62026;39.230;9.122;2022-09-09T02:17:09;100899.69;;;28.06
67599;BMP280;62026;39.230;9.122;2022-09-09T02:20:03;100889.69;;;27.98
67599;BMP280;62026;39.230;9.122;2022-09-09T02:22:56;100899.69;;;28.06
67599;BMP280;62026;39.230;9.122;2022-09-09T02:25:26;100870.19;;;27.96
67599;BMP280;62026;39.230;9.122;2022-09-09T02:27:58;100898.91;;;28.05
67599;BMP280;62026;39.230;9.122;2022-09-09T02:30:25;100888.38;;;27.95
67599;BMP280;62026;39.230;9.122;2022-09-09T02:32:57;100898.41;;;28.03
67599;BMP280;62026;39.230;9.122;2022-09-09T02:35:36;100896.50;;;28.04
67599;BMP280;62026;39.230;9.122;2022-09-09T02:38:06;100891.84;;;28.04
67599;BMP280;62026;39.230;9.122;2022-09-09T02:40:33;100888.22;;;28.00
67599;BMP280;62026;39.230;9.122;2022-09-09T02:43:02;100890.44;;;28.07
67599;BMP280;62026;39.230;9.122;2022-09-09T02:45:38;100891.84;;;28.04
67599;BMP280;62026;39.230;9.122;2022-09-09T02:48:14;100890.94;;;28.00
67599;BMP280;62026;39.230;9.122;2022-09-09T02:51:10;100886.13;;;28.06
67599;BMP280;62026;39.230;9.122;2022-09-09T02:56:19;100877.00;;;28.02
67599;BMP280;62026;39.230;9.122;2022-09-09T02:58:48;100880.09;;;28.00
67599;BMP280;62026;39.230;9.122;2022-09-09T03:01:15;100866.41;;;27.88
67599;BMP280;62026;39.230;9.122;2022-09-09T03:03:41;100879.78;;;27.93
67599;BMP280;62026;39.230;9.122;2022-09-09T03:06:12;100872.00;;;27.92
67599;BMP280;62026;39.230;9.122;2022-09-09T03:08:39;100882.44;;;28.02
67599;BMP280;62026;39.230;9.122;2022-09-09T03:11:05;100891.25;;;27.99
67599;BMP280;62026;39.230;9.122;2022-09-09T03:13:34;100872.44;;;27.94
67599;BMP280;62026;39.230;9.122;2022-09-09T03:16:00;100880.75;;;27.97
67599;BMP280;62026;39.230;9.122;2022-09-09T03:18:28;100874.72;;;27.92
67599;BMP280;62026;39.230;9.122;2022-09-09T03:20:54;100884.91;;;27.95
67599;BMP280;62026;39.230;9.122;2022-09-09T03:23:20;100878.38;;;27.87
67599;BMP280;62026;39.230;9.122;2022-09-09T03:25:49;100884.28;;;27.89
67599;BMP280;62026;39.230;9.122;2022-09-09T03:28:19;100884.91;;;27.95
67599;BMP280;62026;39.230;9.122;2022-09-09T03:30:46;100888.13;;;27.88
67599;BMP280;62026;39.230;9.122;2022-09-09T03:33:13;100886.41;;;27.84
67599;BMP280;62026;39.230;9.122;2022-09-09T03:35:45;100886.09;;;27.85
67599;BMP280;62026;39.230;9.122;2022-09-09T03:38:13;100873.03;;;27.79
67599;BMP280;62026;39.230;9.122;2022-09-09T03:40:39;100847.91;;;27.61
67599;BMP280;62026;39.230;9.122;2022-09-09T03:43:05;100878.91;;;27.81
67599;BMP280;62026;39.230;9.122;2022-09-09T03:45:33;100874.63;;;27.80
67599;BMP280;62026;39.230;9.122;2022-09-09T03:47:59;100871.44;;;27.78
67599;BMP280;62026;39.230;9.122;2022-09-09T03:50:26;100871.94;;;27.71
67599;BMP280;62026;39.230;9.122;2022-09-09T03:52:52;100863.97;;;27.75
67599;BMP280;62026;39.230;9.122;2022-09-09T03:55:21;100849.97;;;27.64
67599;BMP280;62026;39.230;9.122;2022-09-09T03:57:47;100847.91;;;27.61
67599;BMP280;62026;39.230;9.122;2022-09-09T04:00:14;100864.13;;;27.70
67599;BMP280;62026;39.230;9.122;2022-09-09T04:02:43;100855.38;;;27.64
67599;BMP280;62026;39.230;9.122;2022-09-09T04:05:13;100841.47;;;27.65
67599;BMP280;62026;39.230;9.122;2022-09-09T04:07:42;100835.13;;;27.61
67599;BMP280;62026;39.230;9.122;2022-09-09T04:10:09;100832.09;;;27.63
67599;BMP280;62026;39.230;9.122;2022-09-09T04:12:37;100814.13;;;27.50
67599;BMP280;62026;39.230;9.122;2022-09-09T04:15:03;100839.09;;;27.64
67599;BMP280;62026;39.230;9.122;2022-09-09T04:17:30;100821.22;;;27.63
67599;BMP280;62026;39.230;9.122;2022-09-09T04:19:56;100825.06;;;27.62
67599;BMP280;62026;39.230;9.122;2022-09-09T04:22:23;100835.75;;;27.58
67599;BMP280;62026;39.230;9.122;2022-09-09T04:24:49;100822.53;;;27.57
67599;BMP280;62026;39.230;9.122;2022-09-09T04:27:18;100819.22;;;27.51
67599;BMP280;62026;39.230;9.122;2022-09-09T04:29:46;100823.03;;;27.50
67599;BMP280;62026;39.230;9.122;2022-09-09T04:32:12;100832.47;;;27.53
67599;BMP280;62026;39.230;9.122;2022-09-09T04:34:39;100827.66;;;27.50
67599;BMP280;62026;39.230;9.122;2022-09-09T04:37:08;100838.88;;;27.48
67599;BMP280;62026;39.230;9.122;2022-09-09T04:39:34;100833.56;;;27.52
67599;BMP280;62026;39.230;9.122;2022-09-09T04:42:00;100834.56;;;27.47
67599;BMP280;62026;39.230;9.122;2022-09-09T04:44:27;100829.94;;;27.48
67599;BMP280;62026;39.230;9.122;2022-09-09T04:46:54;100841.59;;;27.48
67599;BMP280;62026;39.230;9.122;2022-09-09T04:49:20;100837.88;;;27.53
67599;BMP280;62026;39.230;9.122;2022-09-09T04:51:48;100844.44;;;27.52
67599;BMP280;62026;39.230;9.122;2022-09-09T04:54:17;100843.94;;;27.50
67599;BMP280;62026;39.230;9.122;2022-09-09T04:56:44;100854.16;;;27.53
67599;BMP280;62026;39.230;9.122;2022-09-09T04:59:11;100831.25;;;27.42
67599;BMP280;62026;39.230;9.122;2022-09-09T05:01:43;100853.38;;;27.52
67599;BMP280;62026;39.230;9.122;2022-09-09T05:04:10;100858.00;;;27.52
67599;BMP280;62026;39.230;9.122;2022-09-09T05:06:36;100860.84;;;27.55
67599;BMP280;62026;39.230;9.122;2022-09-09T05:09:03;100864.84;;;27.49
67599;BMP280;62026;39.230;9.122;2022-09-09T05:11:31;100865.00;;;27.53
67599;BMP280;62026;39.230;9.122;2022-09-09T05:14:21;100862.31;;;27.53
67599;BMP280;62026;39.230;9.122;2022-09-09T05:16:47;100875.19;;;27.56
67599;BMP280;62026;39.230;9.122;2022-09-09T05:19:15;100879.03;;;27.55
67599;BMP280;62026;39.230;9.122;2022-09-09T05:21:47;100875.19;;;27.56
67599;BMP280;62026;39.230;9.122;2022-09-09T05:24:16;100883.78;;;27.58
67599;BMP280;62026;39.230;9.122;2022-09-09T05:26:43;100882.88;;;27.54
67599;BMP280;62026;39.230;9.122;2022-09-09T05:29:10;100859.66;;;27.36
67599;BMP280;62026;39.230;9.122;2022-09-09T05:31:36;100883.53;;;27.51
67599;BMP280;62026;39.230;9.122;2022-09-09T05:34:08;100891.34;;;27.52
67599;BMP280;62026;39.230;9.122;2022-09-09T05:36:34;100893.06;;;27.57
67599;BMP280;62026;39.230;9.122;2022-09-09T05:39:00;100889.88;;;27.55
67599;BMP280;62026;39.230;9.122;2022-09-09T05:41:28;100892.94;;;27.53
67599;BMP280;62026;39.230;9.122;2022-09-09T05:43:57;100896.91;;;27.56
67599;BMP280;62026;39.230;9.122;2022-09-09T05:46:25;100880.06;;;27.42
67599;BMP280;62026;39.230;9.122;2022-09-09T05:48:53;100891.84;;;27.46
67599;BMP280;62026;39.230;9.122;2022-09-09T05:51:26;100895.66;;;27.53
67599;BMP280;62026;39.230;9.122;2022-09-09T05:53:57;100907.09;;;27.59
67599;BMP280;62026;39.230;9.122;2022-09-09T05:56:29;100896.53;;;27.66
67599;BMP280;62026;39.230;9.122;2022-09-09T05:58:57;100907.56;;;27.70
67599;BMP280;62026;39.230;9.122;2022-09-09T06:01:33;100904.50;;;27.71
67599;BMP280;62026;39.230;9.122;2022-09-09T06:04:01;100920.78;;;27.71
67599;BMP280;62026;39.230;9.122;2022-09-09T06:06:33;100917.56;;;27.78
67599;BMP280;62026;39.230;9.122;2022-09-09T06:09:06;100927.47;;;27.82
67599;BMP280;62026;39.230;9.122;2022-09-09T06:11:36;100935.41;;;27.87
67599;BMP280;62026;39.230;9.122;2022-09-09T06:14:04;100937.66;;;27.85
67599;BMP280;62026;39.230;9.122;2022-09-09T06:16:31;100942.41;;;27.88
67599;BMP280;62026;39.230;9.122;2022-09-09T06:19:04;100942.75;;;27.87
67599;BMP280;62026;39.230;9.122;2022-09-09T06:21:33;100937.91;;;27.92
67599;BMP280;62026;39.230;9.122;2022-09-09T06:24:02;100935.69;;;27.94
67599;BMP280;62026;39.230;9.122;2022-09-09T06:26:34;100937.25;;;27.95
67599;BMP280;62026;39.230;9.122;2022-09-09T06:29:02;100948.06;;;28.13
67599;BMP280;62026;39.230;9.122;2022-09-09T06:31:31;100954.13;;;28.09
67599;BMP280;62026;39.230;9.122;2022-09-09T06:34:08;100960.38;;;28.31
67599;BMP280;62026;39.230;9.122;2022-09-09T06:36:37;100959.66;;;28.42
67599;BMP280;62026;39.230;9.122;2022-09-09T06:39:05;100964.88;;;28.47
67599;BMP280;62026;39.230;9.122;2022-09-09T06:41:32;100942.72;;;28.45
67599;BMP280;62026;39.230;9.122;2022-09-09T06:44:00;100962.44;;;28.55
67599;BMP280;62026;39.230;9.122;2022-09-09T06:46:37;100957.63;;;28.60
67599;BMP280;62026;39.230;9.122;2022-09-09T06:49:04;100969.41;;;28.64
67599;BMP280;62026;39.230;9.122;2022-09-09T06:51:32;100950.47;;;28.56
67599;BMP280;62026;39.230;9.122;2022-09-09T06:54:00;100958.94;;;28.54
67599;BMP280;62026;39.230;9.122;2022-09-09T06:56:39;100963.19;;;28.64
67599;BMP280;62026;39.230;9.122;2022-09-09T06:59:12;100968.09;;;28.70
67599;BMP280;62026;39.230;9.122;2022-09-09T07:01:42;100956.81;;;28.60
67599;BMP280;62026;39.230;9.122;2022-09-09T07:04:12;100961.19;;;28.73
67599;BMP280;62026;39.230;9.122;2022-09-09T07:06:45;100969.28;;;28.81
67599;BMP280;62026;39.230;9.122;2022-09-09T07:09:23;100967.00;;;28.83
67599;BMP280;62026;39.230;9.122;2022-09-09T07:11:51;100966.09;;;28.79
67599;BMP280;62026;39.230;9.122;2022-09-09T07:14:19;100965.47;;;28.94
67599;BMP280;62026;39.230;9.122;2022-09-09T07:16:50;100960.44;;;28.84
67599;BMP280;62026;39.230;9.122;2022-09-09T07:19:17;100962.38;;;28.84
67599;BMP280;62026;39.230;9.122;2022-09-09T07:21:46;100969.00;;;28.95
67599;BMP280;62026;39.230;9.122;2022-09-09T07:24:15;100966.97;;;29.04
67599;BMP280;62026;39.230;9.122;2022-09-09T07:26:42;100968.19;;;28.94
67599;BMP280;62026;39.230;9.122;2022-09-09T07:29:10;100970.50;;;29.05
67599;BMP280;62026;39.230;9.122;2022-09-09T07:31:41;100973.88;;;29.02
67599;BMP280;62026;39.230;9.122;2022-09-09T07:34:11;100972.66;;;29.11
67599;BMP280;62026;39.230;9.122;2022-09-09T07:36:39;100987.09;;;29.24
67599;BMP280;62026;39.230;9.122;2022-09-09T07:39:09;100986.00;;;29.49
67599;BMP280;62026;39.230;9.122;2022-09-09T07:41:45;100991.16;;;29.51
67599;BMP280;62026;39.230;9.122;2022-09-09T07:44:14;100995.88;;;29.42
67599;BMP280;62026;39.230;9.122;2022-09-09T07:46:42;101001.63;;;29.40
67599;BMP280;62026;39.230;9.122;2022-09-09T07:49:11;100999.88;;;29.56
67599;BMP280;62026;39.230;9.122;2022-09-09T07:51:40;101006.00;;;29.53
67599;BMP280;62026;39.230;9.122;2022-09-09T07:54:13;101014.59;;;29.55
67599;BMP280;62026;39.230;9.122;2022-09-09T07:56:42;101007.59;;;29.66
67599;BMP280;62026;39.230;9.122;2022-09-09T07:59:11;101015.53;;;29.83
67599;BMP280;62026;39.230;9.122;2022-09-09T08:01:42;101014.63;;;29.79
67599;BMP280;62026;39.230;9.122;2022-09-09T08:04:15;101003.28;;;29.90
67599;BMP280;62026;39.230;9.122;2022-09-09T08:06:46;101017.34;;;29.92
67599;BMP280;62026;39.230;9.122;2022-09-09T08:09:14;101021.44;;;29.86
67599;BMP280;62026;39.230;9.122;2022-09-09T08:11:42;101030.09;;;29.88
67599;BMP280;62026;39.230;9.122;2022-09-09T08:14:09;101027.59;;;29.82
67599;BMP280;62026;39.230;9.122;2022-09-09T08:16:39;101032.78;;;30.12
67599;BMP280;62026;39.230;9.122;2022-09-09T08:19:06;101013.63;;;29.96
67599;BMP280;62026;39.230;9.122;2022-09-09T08:21:35;101038.69;;;30.02
67599;BMP280;62026;39.230;9.122;2022-09-09T08:24:03;101035.06;;;29.86
67599;BMP280;62026;39.230;9.122;2022-09-09T08:26:34;101043.34;;;30.01
67599;BMP280;62026;39.230;9.122;2022-09-09T08:29:02;101038.66;;;30.38
67599;BMP280;62026;39.230;9.122;2022-09-09T08:31:33;101039.38;;;30.23
67599;BMP280;62026;39.230;9.122;2022-09-09T08:34:01;101037.13;;;30.13
67599;BMP280;62026;39.230;9.122;2022-09-09T08:36:31;101042.88;;;30.36
67599;BMP280;62026;39.230;9.122;2022-09-09T08:38:59;101034.72;;;30.76
67599;BMP280;62026;39.230;9.122;2022-09-09T08:55:14;101049.59;;;31.06
67599;BMP280;62026;39.230;9.122;2022-09-09T08:57:44;101047.63;;;30.91
67599;BMP280;62026;39.230;9.122;2022-09-09T09:00:12;101047.31;;;30.80
67599;BMP280;62026;39.230;9.122;2022-09-09T09:05:19;101051.97;;;30.80
67599;BMP280;62026;39.230;9.122;2022-09-09T09:07:59;101045.13;;;30.86
67599;BMP280;62026;39.230;9.122;2022-09-09T09:11:10;101053.00;;;30.87
67599;BMP280;62026;39.230;9.122;2022-09-09T09:13:54;101042.13;;;31.03
67599;BMP280;62026;39.230;9.122;2022-09-09T09:19:01;101050.75;;;31.64
67599;BMP280;62026;39.230;9.122;2022-09-09T09:21:43;101060.78;;;31.76
67599;BMP280;62026;39.230;9.122;2022-09-09T09:24:35;101060.09;;;31.63
67599;BMP280;62026;39.230;9.122;2022-09-09T09:27:40;101053.38;;;31.92
67599;BMP280;62026;39.230;9.122;2022-09-09T09:30:22;101059.03;;;31.68
67599;BMP280;62026;39.230;9.122;2022-09-09T09:35:38;101054.75;;;31.39
67599;BMP280;62026;39.230;9.122;2022-09-09T09:38:19;101063.94;;;31.78
67599;BMP280;62026;39.230;9.122;2022-09-09T09:40:53;101061.03;;;31.71
67599;BMP280;62026;39.230;9.122;2022-09-09T09:43:27;101064.28;;;31.60
67599;BMP280;62026;39.230;9.122;2022-09-09T09:45:55;101062.44;;;31.96
67599;BMP280;62026;39.230;9.122;2022-09-09T09:48:24;101046.44;;;31.63
67599;BMP280;62026;39.230;9.122;2022-09-09T09:50:58;101056.25;;;31.99
67599;BMP280;62026;39.230;9.122;2022-09-09T09:53:28;101029.13;;;32.25
67599;BMP280;62026;39.230;9.122;2022-09-09T09:55:59;101052.41;;;32.92
67599;BMP280;62026;39.230;9.122;2022-09-09T09:58:30;101052.50;;;32.99
67599;BMP280;62026;39.230;9.122;2022-09-09T10:00:58;101043.81;;;32.75
67599;BMP280;62026;39.230;9.122;2022-09-09T10:03:30;101061.22;;;32.28
67599;BMP280;62026;39.230;9.122;2022-09-09T10:05:58;101050.00;;;32.91
67599;BMP280;62026;39.230;9.122;2022-09-09T10:08:27;101039.47;;;32.32
67599;BMP280;62026;39.230;9.122;2022-09-09T10:14:00;101059.00;;;33.11
67599;BMP280;62026;39.230;9.122;2022-09-09T10:19:42;101048.16;;;32.76
67599;BMP280;62026;39.230;9.122;2022-09-09T10:22:31;101044.25;;;32.77
67599;BMP280;62026;39.230;9.122;2022-09-09T10:31:34;101039.16;;;32.75
67599;BMP280;62026;39.230;9.122;2022-09-09T10:36:42;101035.47;;;32.68
67599;BMP280;62026;39.230;9.122;2022-09-09T10:39:39;101032.75;;;32.48
67599;BMP280;62026;39.230;9.122;2022-09-09T10:42:17;101029.81;;;32.99
67599;BMP280;62026;39.230;9.122;2022-09-09T10:45:14;101027.88;;;32.57
67599;BMP280;62026;39.230;9.122;2022-09-09T10:56:03;101026.81;;;32.27
67599;BMP280;62026;39.230;9.122;2022-09-09T10:58:56;101026.09;;;32.30
67599;BMP280;62026;39.230;9.122;2022-09-09T11:01:42;101024.09;;;32.27
67599;BMP280;62026;39.230;9.122;2022-09-09T11:04:22;101019.25;;;32.01
67599;BMP280;62026;39.230;9.122;2022-09-09T11:06:53;101019.00;;;32.26
67599;BMP280;62026;39.230;9.122;2022-09-09T11:09:24;101019.31;;;32.05
67599;BMP280;62026;39.230;9.122;2022-09-09T11:11:54;101009.91;;;31.87
67599;BMP280;62026;39.230;9.122;2022-09-09T11:14:26;101013.41;;;32.03
67599;BMP280;62026;39.230;9.122;2022-09-09T11:16:58;101003.59;;;32.37
67599;BMP280;62026;39.230;9.122;2022-09-09T11:19:28;101001.53;;;32.49
67599;BMP280;62026;39.230;9.122;2022-09-09T11:21:57;101004.34;;;32.34
67599;BMP280;62026;39.230;9.122;2022-09-09T11:24:37;101018.88;;;32.03
67599;BMP280;62026;39.230;9.122;2022-09-09T11:27:16;101011.53;;;32.07
67599;BMP280;62026;39.230;9.122;2022-09-09T11:32:34;101005.06;;;31.96
67599;BMP280;62026;39.230;9.122;2022-09-09T11:40:30;101003.75;;;31.90
67599;BMP280;62026;39.230;9.122;2022-09-09T11:43:15;101007.94;;;32.03
67599;BMP280;62026;39.230;9.122;2022-09-09T11:45:50;101005.63;;;31.86
67599;BMP280;62026;39.230;9.122;2022-09-09T11:53:57;101005.63;;;31.70
67599;BMP280;62026;39.230;9.122;2022-09-09T11:58:57;101001.88;;;32.29
67599;BMP280;62026;39.230;9.122;2022-09-09T12:09:51;100991.50;;;32.38
67599;BMP280;62026;39.230;9.122;2022-09-09T12:12:22;100988.13;;;32.44
67599;BMP280;62026;39.230;9.122;2022-09-09T12:17:48;100969.69;;;32.22
67599;BMP280;62026;39.230;9.122;2022-09-09T12:20:15;100988.47;;;32.43
67599;BMP280;62026;39.230;9.122;2022-09-09T12:28:37;100987.75;;;32.46
67599;BMP280;62026;39.230;9.122;2022-09-09T12:31:30;100978.41;;;32.08
67599;BMP280;62026;39.230;9.122;2022-09-09T12:34:10;100989.81;;;31.95
67599;BMP280;62026;39.230;9.122;2022-09-09T12:36:38;100982.63;;;32.06
67599;BMP280;62026;39.230;9.122;2022-09-09T12:39:38;100981.41;;;32.03
67599;BMP280;62026;39.230;9.122;2022-09-09T12:42:19;100978.00;;;31.91
67599;BMP280;62026;39.230;9.122;2022-09-09T12:44:53;100967.38;;;31.86
67599;BMP280;62026;39.230;9.122;2022-09-09T12:47:22;100983.09;;;31.92
67599;BMP280;62026;39.230;9.122;2022-09-09T12:49:51;100978.22;;;31.67
67599;BMP280;62026;39.230;9.122;2022-09-09T12:52:30;100976.56;;;31.46
67599;BMP280;62026;39.230;9.122;2022-09-09T12:55:00;100978.13;;;31.79
67599;BMP280;62026;39.230;9.122;2022-09-09T12:57:35;100978.81;;;31.91
67599;BMP280;62026;39.230;9.122;2022-09-09T13:00:14;100974.94;;;31.77
67599;BMP280;62026;39.230;9.122;2022-09-09T13:02:52;100967.78;;;31.88
67599;BMP280;62026;39.230;9.122;2022-09-09T13:05:25;100975.69;;;31.93
67599;BMP280;62026;39.230;9.122;2022-09-09T13:07:51;100967.13;;;32.10
67599;BMP280;62026;39.230;9.122;2022-09-09T13:10:29;100969.13;;;31.94
67599;BMP280;62026;39.230;9.122;2022-09-09T13:12:58;100960.53;;;31.95
67599;BMP280;62026;39.230;9.122;2022-09-09T13:15:26;100964.66;;;32.05
67599;BMP280;62026;39.230;9.122;2022-09-09T13:17:58;100945.97;;;32.07
67599;BMP280;62026;39.230;9.122;2022-09-09T13:20:27;100943.53;;;32.02
67599;BMP280;62026;39.230;9.122;2022-09-09T13:22:54;100948.09;;;31.98
67599;BMP280;62026;39.230;9.122;2022-09-09T13:25:28;100948.88;;;31.79
67599;BMP280;62026;39.230;9.122;2022-09-09T13:28:00;100934.69;;;31.74
67599;BMP280;62026;39.230;9.122;2022-09-09T13:30:34;100940.13;;;31.89
67599;BMP280;62026;39.230;9.122;2022-09-09T13:36:03;100942.00;;;32.04
67599;BMP280;62026;39.230;9.122;2022-09-09T13:38:33;100934.16;;;32.03
67599;BMP280;62026;39.230;9.122;2022-09-09T13:41:10;100932.91;;;32.16
67599;BMP280;62026;39.230;9.122;2022-09-09T13:43:38;100933.28;;;31.99
67599;BMP280;62026;39.230;9.122;2022-09-09T13:46:41;100934.28;;;31.72
67599;BMP280;62026;39.230;9.122;2022-09-09T13:51:39;100922.81;;;31.66
67599;BMP280;62026;39.230;9.122;2022-09-09T13:54:09;100923.75;;;31.74
67599;BMP280;62026;39.230;9.122;2022-09-09T13:56:36;100918.16;;;31.67
67599;BMP280;62026;39.230;9.122;2022-09-09T13:59:04;100923.22;;;31.84
67599;BMP280;62026;39.230;9.122;2022-09-09T14:01:30;100927.13;;;31.67
67599;BMP280;62026;39.230;9.122;2022-09-09T14:03:57;100921.91;;;31.78
67599;BMP280;62026;39.230;9.122;2022-09-09T14:06:23;100918.75;;;31.95
67599;BMP280;62026;39.230;9.122;2022-09-09T14:08:50;100923.78;;;31.93
67599;BMP280;62026;39.230;9.122;2022-09-09T14:11:17;100928.56;;;31.96
67599;BMP280;62026;39.230;9.122;2022-09-09T14:13:43;100915.78;;;31.84
67599;BMP280;62026;39.230;9.122;2022-09-09T14:16:10;100917.31;;;31.82
67599;BMP280;62026;39.230;9.122;2022-09-09T14:18:36;100920.50;;;31.84
67599;BMP280;62026;39.230;9.122;2022-09-09T14:21:03;100923.38;;;31.91
67599;BMP280;62026;39.230;9.122;2022-09-09T14:23:29;100917.16;;;31.75
67599;BMP280;62026;39.230;9.122;2022-09-09T14:25:56;100921.25;;;31.84
67599;BMP280;62026;39.230;9.122;2022-09-09T14:28:21;100924.47;;;31.86
67599;BMP280;62026;39.230;9.122;2022-09-09T14:30:48;100947.47;;;31.70
67599;BMP280;62026;39.230;9.122;2022-09-09T14:33:15;100924.41;;;31.51
67599;BMP280;62026;39.230;9.122;2022-09-09T14:35:41;100921.75;;;31.55
67599;BMP280;62026;39.230;9.122;2022-09-09T14:38:08;100918.94;;;31.51
67599;BMP280;62026;39.230;9.122;2022-09-09T14:40:36;100939.31;;;31.54
67599;BMP280;62026;39.230;9.122;2022-09-09T14:43:03;100916.00;;;31.56
67599;BMP280;62026;39.230;9.122;2022-09-09T14:45:29;100925.03;;;31.60
67599;BMP280;62026;39.230;9.122;2022-09-09T14:47:55;100934.91;;;31.49
67599;BMP280;62026;39.230;9.122;2022-09-09T14:50:22;100935.19;;;31.44
67599;BMP280;62026;39.230;9.122;2022-09-09T14:52:49;100943.91;;;31.50
67599;BMP280;62026;39.230;9.122;2022-09-09T14:55:16;100925.66;;;31.54
67599;BMP280;62026;39.230;9.122;2022-09-09T14:57:42;100930.09;;;31.43
67599;BMP280;62026;39.230;9.122;2022-09-09T15:00:09;100942.94;;;31.42
67599;BMP280;62026;39.230;9.122;2022-09-09T15:02:36;100933.44;;;31.36
67599;BMP280;62026;39.230;9.122;2022-09-09T15:05:04;100942.03;;;31.38
67599;BMP280;62026;39.230;9.122;2022-09-09T15:07:30;100932.72;;;31.39
67599;BMP280;62026;39.230;9.122;2022-09-09T15:09:57;100919.41;;;31.22
67599;BMP280;62026;39.230;9.122;2022-09-09T15:12:24;100945.75;;;31.30
67599;BMP280;62026;39.230;9.122;2022-09-09T15:14:50;100942.59;;;31.28
67599;BMP280;62026;39.230;9.122;2022-09-09T15:17:16;100955.97;;;31.33
67599;BMP280;62026;39.230;9.122;2022-09-09T15:19:42;100948.31;;;31.23
67599;BMP280;62026;39.230;9.122;2022-09-09T15:22:08;100941.97;;;31.19
67599;BMP280;62026;39.230;9.122;2022-09-09T15:24:34;100947.59;;;31.10
67599;BMP280;62026;39.230;9.122;2022-09-09T15:27:01;100943.34;;;31.13
67599;BMP280;62026;39.230;9.122;2022-09-09T15:29:27;100949.34;;;31.03
67599;BMP280;62026;39.230;9.122;2022-09-09T15:31:54;100952.97;;;31.07
67599;BMP280;62026;39.230;9.122;2022-09-09T15:34:21;100945.53;;;30.92
67599;BMP280;62026;39.230;9.122;2022-09-09T15:36:47;100945.28;;;30.97
67599;BMP280;62026;39.230;9.122;2022-09-09T15:39:16;100946.47;;;30.96
67599;BMP280;62026;39.230;9.122;2022-09-09T15:41:44;100943.34;;;30.82
67599;BMP280;62026;39.230;9.122;2022-09-09T15:44:11;100934.78;;;30.83
67599;BMP280;62026;39.230;9.122;2022-09-09T15:46:43;100940.00;;;30.88
67599;BMP280;62026;39.230;9.122;2022-09-09T15:49:18;100947.44;;;30.76
67599;BMP280;62026;39.230;9.122;2022-09-09T15:51:45;100941.03;;;30.84
67599;BMP280;62026;39.230;9.122;2022-09-09T15:54:14;100951.94;;;30.84
67599;BMP280;62026;39.230;9.122;2022-09-09T15:56:42;100946.06;;;30.82
67599;BMP280;62026;39.230;9.122;2022-09-09T15:59:08;100933.22;;;30.82
67599;BMP280;62026;39.230;9.122;2022-09-09T16:01:35;100929.31;;;30.67
67599;BMP280;62026;39.230;9.122;2022-09-09T16:04:01;100943.13;;;30.74
67599;BMP280;62026;39.230;9.122;2022-09-09T16:06:28;100941.03;;;30.84
67599;BMP280;62026;39.230;9.122;2022-09-09T16:08:57;100943.22;;;30.78
67599;BMP280;62026;39.230;9.122;2022-09-09T16:11:35;100952.66;;;30.81